sensor_id;sensor_type;location;lat;lon;timestamp;P1;durP1;ratioP1;P2;durP2;ratioP2
65567;SDS011;52211;50.154;8.682;2023-03-12T00:01:24;10.50;;;6.90;;
65567;SDS011;52211;50.154;8.682;2023-03-12T00:03:55;14.70;;;6.67;;
65567;SDS011;52211;50.154;8.682;2023-03-12T00:06:25;8.80;;;6.03;;
65567;SDS011;52211;50.154;8.682;2023-03-12T00:08:51;8.57;;;6.63;;
65567;SDS011;52211;50.154;8.682;2023-03-12T00:11:21;9.40;;;6.80;;
65567;SDS011;52211;50.154;8.682;2023-03-12T00:13:52;8.37;;;5.67;;
65567;SDS011;52211;50.154;8.682;2023-03-12T00:16:24;8.73;;;6.13;;
65567;SDS011;52211;50.154;8.682;2023-03-12T00:18:57;6.83;;;5.67;;
65567;SDS011;52211;50.154;8.682;2023-03-12T00:21:28;8.27;;;5.73;;
65567;SDS011;52211;50.154;8.682;2023-03-12T00:23:58;8.30;;;6.33;;
65567;SDS011;52211;50.154;8.682;2023-03-12T00:26:24;9.07;;;6.70;;
65567;SDS011;52211;50.154;8.682;2023-03-12T00:28:51;10.67;;;6.90;;
65567;SDS011;52211;50.154;8.682;2023-03-12T00:31:24;10.20;;;6.80;;
65567;SDS011;52211;50.154;8.682;2023-03-12T00:33:56;10.73;;;8.20;;
65567;SDS011;52211;50.154;8.682;2023-03-12T00:36:26;13.13;;;7.37;;
65567;SDS011;52211;50.154;8.682;2023-03-12T00:39:00;8.23;;;6.87;;
65567;SDS011;52211;50.154;8.682;2023-03-12T00:41:32;11.00;;;7.87;;
65567;SDS011;52211;50.154;8.682;2023-03-12T00:44:00;10.83;;;8.10;;
65567;SDS011;52211;50.154;8.682;2023-03-12T00:46:27;13.20;;;8.50;;
65567;SDS011;52211;50.154;8.682;2023-03-12T00:48:57;11.00;;;7.93;;
65567;SDS011;52211;50.154;8.682;2023-03-12T00:51:26;9.80;;;8.20;;
65567;SDS011;52211;50.154;8.682;2023-03-12T00:53:58;11.80;;;7.77;;
65567;SDS011;52211;50.154;8.682;2023-03-12T00:56:25;11.30;;;7.40;;
65567;SDS011;52211;50.154;8.682;2023-03-12T00:58:55;12.90;;;8.30;;
65567;SDS011;52211;50.154;8.682;2023-03-12T01:01:22;10.30;;;7.70;;
65567;SDS011;52211;50.154;8.682;2023-03-12T01:03:54;9.60;;;7.57;;
65567;SDS011;52211;50.154;8.682;2023-03-12T01:06:28;11.17;;;7.77;;
65567;SDS011;52211;50.154;8.682;2023-03-12T01:08:57;9.83;;;7.63;;
65567;SDS011;52211;50.154;8.682;2023-03-12T01:11:26;7.83;;;6.83;;
65567;SDS011;52211;50.154;8.682;2023-03-12T01:13:56;11.23;;;6.90;;
65567;SDS011;52211;50.154;8.682;2023-03-12T01:16:23;8.60;;;6.93;;
65567;SDS011;52211;50.154;8.682;2023-03-12T01:18:58;12.13;;;8.23;;
65567;SDS011;52211;50.154;8.682;2023-03-12T01:21:28;11.13;;;8.03;;
65567;SDS011;52211;50.154;8.682;2023-03-12T01:23:55;11.93;;;8.00;;
65567;SDS011;52211;50.154;8.682;2023-03-12T01:26:25;11.70;;;7.03;;
65567;SDS011;52211;50.154;8.682;2023-03-12T01:28:54;11.37;;;7.73;;
65567;SDS011;52211;50.154;8.682;2023-03-12T01:31:21;12.93;;;7.73;;
65567;SDS011;52211;50.154;8.682;2023-03-12T01:33:49;8.93;;;7.53;;
65567;SDS011;52211;50.154;8.682;2023-03-12T01:36:22;9.50;;;8.33;;
65567;SDS011;52211;50.154;8.682;2023-03-12T01:38:53;8.97;;;7.20;;
65567;SDS011;52211;50.154;8.682;2023-03-12T01:41:26;8.77;;;6.77;;
65567;SDS011;52211;50.154;8.682;2023-03-12T01:44:00;9.00;;;6.40;;
65567;SDS011;52211;50.154;8.682;2023-03-12T01:46:38;9.50;;;7.57;;
65567;SDS011;52211;50.154;8.682;2023-03-12T01:54:22;9.23;;;6.37;;
65567;SDS011;52211;50.154;8.682;2023-03-12T01:56:59;8.00;;;7.00;;
65567;SDS011;52211;50.154;8.682;2023-03-12T01:59:36;9.70;;;7.13;;
65567;SDS011;52211;50.154;8.682;2023-03-12T02:02:14;9.53;;;6.80;;
65567;SDS011;52211;50.154;8.682;2023-03-12T02:04:48;8.17;;;6.77;;
65567;SDS011;52211;50.154;8.682;2023-03-12T02:07:22;10.77;;;7.40;;
65567;SDS011;52211;50.154;8.682;2023-03-12T02:09:53;8.80;;;7.10;;
65567;SDS011;52211;50.154;8.682;2023-03-12T02:12:25;8.00;;;6.53;;
65567;SDS011;52211;50.154;8.682;2023-03-12T02:14:52;12.13;;;7.03;;
65567;SDS011;52211;50.154;8.682;2023-03-12T02:17:24;9.63;;;7.33;;
65567;SDS011;52211;50.154;8.682;2023-03-12T02:23:08;9.97;;;7.40;;
65567;SDS011;52211;50.154;8.682;2023-03-12T02:25:49;9.73;;;7.03;;
65567;SDS011;52211;50.154;8.682;2023-03-12T02:28:19;10.10;;;6.60;;
65567;SDS011;52211;50.154;8.682;2023-03-12T02:30:52;8.40;;;6.43;;
65567;SDS011;52211;50.154;8.682;2023-03-12T02:33:29;9.27;;;6.70;;
65567;SDS011;52211;50.154;8.682;2023-03-12T02:35:59;8.50;;;6.50;;
65567;SDS011;52211;50.154;8.682;2023-03-12T02:38:48;8.23;;;6.67;;
65567;SDS011;52211;50.154;8.682;2023-03-12T02:46:36;9.70;;;6.83;;
65567;SDS011;52211;50.154;8.682;2023-03-12T02:49:11;11.80;;;6.80;;
65567;SDS011;52211;50.154;8.682;2023-03-12T02:51:42;13.13;;;7.17;;
65567;SDS011;52211;50.154;8.682;2023-03-12T02:54:14;9.10;;;6.43;;
65567;SDS011;52211;50.154;8.682;2023-03-12T02:56:48;8.50;;;6.47;;
65567;SDS011;52211;50.154;8.682;2023-03-12T02:59:19;7.27;;;6.33;;
65567;SDS011;52211;50.154;8.682;2023-03-12T03:01:53;7.20;;;6.50;;
65567;SDS011;52211;50.154;8.682;2023-03-12T03:04:27;7.63;;;6.87;;
65567;SDS011;52211;50.154;8.682;2023-03-12T03:06:56;8.10;;;6.20;;
65567;SDS011;52211;50.154;8.682;2023-03-12T03:09:25;6.87;;;5.73;;
65567;SDS011;52211;50.154;8.682;2023-03-12T03:11:55;7.40;;;6.07;;
65567;SDS011;52211;50.154;8.682;2023-03-12T03:14:24;9.43;;;6.23;;
65567;SDS011;52211;50.154;8.682;2023-03-12T03:16:54;7.40;;;6.43;;
65567;SDS011;52211;50.154;8.682;2023-03-12T03:19:23;12.10;;;6.50;;
65567;SDS011;52211;50.154;8.682;2023-03-12T03:21:50;9.50;;;6.17;;
65567;SDS011;52211;50.154;8.682;2023-03-12T03:24:19;5.93;;;5.40;;
65567;SDS011;52211;50.154;8.682;2023-03-12T03:26:46;6.83;;;6.07;;
65567;SDS011;52211;50.154;8.682;2023-03-12T03:29:18;6.20;;;5.60;;
65567;SDS011;52211;50.154;8.682;2023-03-12T03:31:47;7.00;;;5.83;;
65567;SDS011;52211;50.154;8.682;2023-03-12T03:34:15;8.57;;;6.00;;
65567;SDS011;52211;50.154;8.682;2023-03-12T03:36:44;7.20;;;6.00;;
65567;SDS011;52211;50.154;8.682;2023-03-12T03:39:16;7.47;;;5.87;;
65567;SDS011;52211;50.154;8.682;2023-03-12T03:41:46;12.37;;;5.83;;
65567;SDS011;52211;50.154;8.682;2023-03-12T03:44:24;7.97;;;5.60;;
65567;SDS011;52211;50.154;8.682;2023-03-12T03:46:53;7.07;;;5.40;;
65567;SDS011;52211;50.154;8.682;2023-03-12T03:49:25;6.20;;;5.30;;
65567;SDS011;52211;50.154;8.682;2023-03-12T03:51:55;7.80;;;6.20;;
65567;SDS011;52211;50.154;8.682;2023-03-12T03:54:32;7.87;;;5.73;;
65567;SDS011;52211;50.154;8.682;2023-03-12T03:57:05;8.83;;;5.33;;
65567;SDS011;52211;50.154;8.682;2023-03-12T03:59:34;8.53;;;5.43;;
65567;SDS011;52211;50.154;8.682;2023-03-12T04:02:01;7.77;;;5.60;;
65567;SDS011;52211;50.154;8.682;2023-03-12T04:04:34;8.53;;;5.43;;
65567;SDS011;52211;50.154;8.682;2023-03-12T04:07:05;6.97;;;5.87;;
65567;SDS011;52211;50.154;8.682;2023-03-12T04:09:38;6.43;;;5.83;;
65567;SDS011;52211;50.154;8.682;2023-03-12T04:12:05;6.77;;;4.83;;
65567;SDS011;52211;50.154;8.682;2023-03-12T04:14:37;6.23;;;5.63;;
65567;SDS011;52211;50.154;8.682;2023-03-12T04:17:08;8.80;;;6.03;;
65567;SDS011;52211;50.154;8.682;2023-03-12T04:19:40;8.83;;;6.30;;
65567;SDS011;52211;50.154;8.682;2023-03-12T04:22:07;7.40;;;5.33;;
65567;SDS011;52211;50.154;8.682;2023-03-12T04:24:37;7.93;;;5.47;;
65567;SDS011;52211;50.154;8.682;2023-03-12T04:27:03;6.70;;;6.03;;
65567;SDS011;52211;50.154;8.682;2023-03-12T04:29:36;5.90;;;5.33;;
65567;SDS011;52211;50.154;8.682;2023-03-12T04:32:04;5.83;;;4.97;;
65567;SDS011;52211;50.154;8.682;2023-03-12T04:34:34;7.27;;;5.60;;
65567;SDS011;52211;50.154;8.682;2023-03-12T04:37:04;5.90;;;5.30;;
65567;SDS011;52211;50.154;8.682;2023-03-12T04:39:36;6.57;;;5.40;;
65567;SDS011;52211;50.154;8.682;2023-03-12T04:42:05;6.23;;;5.37;;
65567;SDS011;52211;50.154;8.682;2023-03-12T04:44:36;7.57;;;6.47;;
65567;SDS011;52211;50.154;8.682;2023-03-12T04:47:06;7.63;;;5.43;;
65567;SDS011;52211;50.154;8.682;2023-03-12T04:49:33;8.10;;;5.60;;
65567;SDS011;52211;50.154;8.682;2023-03-12T04:52:06;7.40;;;5.40;;
65567;SDS011;52211;50.154;8.682;2023-03-12T04:54:35;8.53;;;5.17;;
65567;SDS011;52211;50.154;8.682;2023-03-12T04:57:03;6.97;;;5.87;;
65567;SDS011;52211;50.154;8.682;2023-03-12T04:59:37;7.03;;;5.23;;
65567;SDS011;52211;50.154;8.682;2023-03-12T05:02:06;6.37;;;5.20;;
65567;SDS011;52211;50.154;8.682;2023-03-12T05:04:33;6.57;;;5.07;;
65567;SDS011;52211;50.154;8.682;2023-03-12T05:07:01;5.83;;;5.23;;
65567;SDS011;52211;50.154;8.682;2023-03-12T05:09:28;9.80;;;5.80;;
65567;SDS011;52211;50.154;8.682;2023-03-12T05:11:57;8.40;;;5.17;;
65567;SDS011;52211;50.154;8.682;2023-03-12T05:14:25;6.70;;;5.07;;
65567;SDS011;52211;50.154;8.682;2023-03-12T05:16:52;8.00;;;5.33;;
65567;SDS011;52211;50.154;8.682;2023-03-12T05:19:19;6.57;;;5.23;;
65567;SDS011;52211;50.154;8.682;2023-03-12T05:21:48;7.17;;;4.80;;
65567;SDS011;52211;50.154;8.682;2023-03-12T05:24:17;6.97;;;4.90;;
65567;SDS011;52211;50.154;8.682;2023-03-12T05:26:44;6.30;;;5.13;;
65567;SDS011;52211;50.154;8.682;2023-03-12T05:29:16;7.90;;;4.57;;
65567;SDS011;52211;50.154;8.682;2023-03-12T05:31:46;7.37;;;4.77;;
65567;SDS011;52211;50.154;8.682;2023-03-12T05:34:16;8.67;;;5.20;;
65567;SDS011;52211;50.154;8.682;2023-03-12T05:36:45;5.63;;;5.00;;
65567;SDS011;52211;50.154;8.682;2023-03-12T05:39:22;7.80;;;5.17;;
65567;SDS011;52211;50.154;8.682;2023-03-12T05:41:50;6.33;;;4.97;;
65567;SDS011;52211;50.154;8.682;2023-03-12T05:44:23;5.47;;;4.97;;
65567;SDS011;52211;50.154;8.682;2023-03-12T05:46:58;7.33;;;4.90;;
65567;SDS011;52211;50.154;8.682;2023-03-12T05:49:27;5.50;;;4.70;;
65567;SDS011;52211;50.154;8.682;2023-03-12T05:51:55;5.30;;;4.70;;
65567;SDS011;52211;50.154;8.682;2023-03-12T05:54:27;5.67;;;4.73;;
65567;SDS011;52211;50.154;8.682;2023-03-12T05:56:54;7.30;;;5.30;;
65567;SDS011;52211;50.154;8.682;2023-03-12T05:59:24;6.87;;;4.27;;
65567;SDS011;52211;50.154;8.682;2023-03-12T06:01:55;5.80;;;4.90;;
65567;SDS011;52211;50.154;8.682;2023-03-12T06:04:26;6.30;;;5.30;;
65567;SDS011;52211;50.154;8.682;2023-03-12T06:06:54;8.63;;;4.77;;
65567;SDS011;52211;50.154;8.682;2023-03-12T06:09:27;6.37;;;4.57;;
65567;SDS011;52211;50.154;8.682;2023-03-12T06:11:54;5.17;;;4.67;;
65567;SDS011;52211;50.154;8.682;2023-03-12T06:14:21;5.53;;;4.70;;
65567;SDS011;52211;50.154;8.682;2023-03-12T06:16:48;7.73;;;4.47;;
65567;SDS011;52211;50.154;8.682;2023-03-12T06:19:16;5.80;;;4.33;;
65567;SDS011;52211;50.154;8.682;2023-03-12T06:21:46;6.07;;;4.40;;
65567;SDS011;52211;50.154;8.682;2023-03-12T06:24:15;5.17;;;4.33;;
65567;SDS011;52211;50.154;8.682;2023-03-12T06:26:53;7.43;;;4.27;;
65567;SDS011;52211;50.154;8.682;2023-03-12T06:29:20;5.37;;;4.17;;
65567;SDS011;52211;50.154;8.682;2023-03-12T06:31:51;5.37;;;4.47;;
65567;SDS011;52211;50.154;8.682;2023-03-12T06:34:23;6.30;;;4.50;;
65567;SDS011;52211;50.154;8.682;2023-03-12T06:36:55;5.90;;;4.50;;
65567;SDS011;52211;50.154;8.682;2023-03-12T06:39:22;7.47;;;4.83;;
65567;SDS011;52211;50.154;8.682;2023-03-12T06:41:49;5.50;;;4.73;;
65567;SDS011;52211;50.154;8.682;2023-03-12T06:44:24;6.10;;;4.50;;
65567;SDS011;52211;50.154;8.682;2023-03-12T06:46:50;5.37;;;4.13;;
65567;SDS011;52211;50.154;8.682;2023-03-12T06:49:17;4.57;;;4.17;;
65567;SDS011;52211;50.154;8.682;2023-03-12T06:51:47;6.97;;;4.93;;
65567;SDS011;52211;50.154;8.682;2023-03-12T06:54:16;5.73;;;4.20;;
65567;SDS011;52211;50.154;8.682;2023-03-12T06:56:46;5.37;;;4.00;;
65567;SDS011;52211;50.154;8.682;2023-03-12T06:59:19;5.63;;;4.10;;
65567;SDS011;52211;50.154;8.682;2023-03-12T07:01:48;5.07;;;3.47;;
65567;SDS011;52211;50.154;8.682;2023-03-12T07:04:18;5.97;;;3.80;;
65567;SDS011;52211;50.154;8.682;2023-03-12T07:06:45;5.97;;;4.30;;
65567;SDS011;52211;50.154;8.682;2023-03-12T07:09:16;5.27;;;3.77;;
65567;SDS011;52211;50.154;8.682;2023-03-12T07:11:46;4.50;;;4.07;;
65567;SDS011;52211;50.154;8.682;2023-03-12T07:14:15;5.30;;;3.67;;
65567;SDS011;52211;50.154;8.682;2023-03-12T07:16:42;5.07;;;3.80;;
65567;SDS011;52211;50.154;8.682;2023-03-12T07:19:11;5.60;;;4.10;;
65567;SDS011;52211;50.154;8.682;2023-03-12T07:21:38;6.33;;;4.27;;
65567;SDS011;52211;50.154;8.682;2023-03-12T07:24:09;7.87;;;4.03;;
65567;SDS011;52211;50.154;8.682;2023-03-12T07:26:36;7.83;;;4.40;;
65567;SDS011;52211;50.154;8.682;2023-03-12T07:29:03;6.67;;;4.50;;
65567;SDS011;52211;50.154;8.682;2023-03-12T07:31:37;4.00;;;3.60;;
65567;SDS011;52211;50.154;8.682;2023-03-12T07:34:06;4.83;;;4.33;;
65567;SDS011;52211;50.154;8.682;2023-03-12T07:36:36;5.10;;;4.07;;
65567;SDS011;52211;50.154;8.682;2023-03-12T07:39:05;5.40;;;3.43;;
65567;SDS011;52211;50.154;8.682;2023-03-12T07:41:31;6.07;;;4.20;;
65567;SDS011;52211;50.154;8.682;2023-03-12T07:44:02;4.40;;;3.33;;
65567;SDS011;52211;50.154;8.682;2023-03-12T07:46:30;7.23;;;3.10;;
65567;SDS011;52211;50.154;8.682;2023-03-12T07:49:01;6.33;;;3.50;;
65567;SDS011;52211;50.154;8.682;2023-03-12T07:51:29;6.77;;;3.13;;
65567;SDS011;52211;50.154;8.682;2023-03-12T07:53:56;6.07;;;3.40;;
65567;SDS011;52211;50.154;8.682;2023-03-12T07:56:28;3.70;;;3.20;;
65567;SDS011;52211;50.154;8.682;2023-03-12T07:58:55;4.03;;;2.57;;
65567;SDS011;52211;50.154;8.682;2023-03-12T08:01:27;4.80;;;3.00;;
65567;SDS011;52211;50.154;8.682;2023-03-12T08:03:57;4.43;;;3.00;;
65567;SDS011;52211;50.154;8.682;2023-03-12T08:06:28;3.27;;;2.97;;
65567;SDS011;52211;50.154;8.682;2023-03-12T08:08:57;3.27;;;2.97;;
65567;SDS011;52211;50.154;8.682;2023-03-12T08:11:24;3.63;;;2.90;;
65567;SDS011;52211;50.154;8.682;2023-03-12T08:13:51;6.93;;;3.03;;
65567;SDS011;52211;50.154;8.682;2023-03-12T08:16:20;5.00;;;3.37;;
65567;SDS011;52211;50.154;8.682;2023-03-12T08:18:54;4.87;;;3.20;;
65567;SDS011;52211;50.154;8.682;2023-03-12T08:21:22;4.83;;;3.20;;
65567;SDS011;52211;50.154;8.682;2023-03-12T08:23:53;6.23;;;3.07;;
65567;SDS011;52211;50.154;8.682;2023-03-12T08:26:25;6.17;;;3.07;;
65567;SDS011;52211;50.154;8.682;2023-03-12T08:28:54;3.60;;;3.40;;
65567;SDS011;52211;50.154;8.682;2023-03-12T08:31:27;3.83;;;2.70;;
65567;SDS011;52211;50.154;8.682;2023-03-12T08:33:55;4.53;;;3.90;;
65567;SDS011;52211;50.154;8.682;2023-03-12T08:36:22;5.60;;;3.43;;
65567;SDS011;52211;50.154;8.682;2023-03-12T08:38:49;7.20;;;3.50;;
65567;SDS011;52211;50.154;8.682;2023-03-12T08:41:16;5.10;;;3.43;;
65567;SDS011;52211;50.154;8.682;2023-03-12T08:43:45;5.83;;;3.30;;
65567;SDS011;52211;50.154;8.682;2023-03-12T08:46:12;5.17;;;3.70;;
65567;SDS011;52211;50.154;8.682;2023-03-12T08:48:39;3.90;;;3.40;;
65567;SDS011;52211;50.154;8.682;2023-03-12T08:51:13;4.00;;;3.70;;
65567;SDS011;52211;50.154;8.682;2023-03-12T08:53:42;5.90;;;4.40;;
65567;SDS011;52211;50.154;8.682;2023-03-12T08:56:10;5.23;;;4.03;;
65567;SDS011;52211;50.154;8.682;2023-03-12T08:58:37;4.90;;;4.40;;
65567;SDS011;52211;50.154;8.682;2023-03-12T09:01:09;5.03;;;4.53;;
65567;SDS011;52211;50.154;8.682;2023-03-12T09:03:40;6.77;;;4.73;;
65567;SDS011;52211;50.154;8.682;2023-03-12T09:06:09;5.47;;;4.97;;
65567;SDS011;52211;50.154;8.682;2023-03-12T09:08:42;5.70;;;5.20;;
65567;SDS011;52211;50.154;8.682;2023-03-12T09:11:12;5.50;;;5.00;;
65567;SDS011;52211;50.154;8.682;2023-03-12T09:13:43;9.93;;;5.90;;
65567;SDS011;52211;50.154;8.682;2023-03-12T09:16:37;6.47;;;5.87;;
65567;SDS011;52211;50.154;8.682;2023-03-12T09:19:11;6.13;;;5.47;;
65567;SDS011;52211;50.154;8.682;2023-03-12T09:21:41;7.07;;;5.77;;
65567;SDS011;52211;50.154;8.682;2023-03-12T09:24:10;6.67;;;6.03;;
65567;SDS011;52211;50.154;8.682;2023-03-12T09:26:39;10.27;;;6.17;;
65567;SDS011;52211;50.154;8.682;2023-03-12T09:29:08;6.60;;;6.00;;
65567;SDS011;52211;50.154;8.682;2023-03-12T09:31:38;6.57;;;5.97;;
65567;SDS011;52211;50.154;8.682;2023-03-12T09:34:12;8.77;;;7.00;;
65567;SDS011;52211;50.154;8.682;2023-03-12T09:36:39;11.43;;;7.33;;
65567;SDS011;52211;50.154;8.682;2023-03-12T09:39:06;8.07;;;7.27;;
65567;SDS011;52211;50.154;8.682;2023-03-12T09:41:36;8.90;;;7.40;;
65567;SDS011;52211;50.154;8.682;2023-03-12T09:44:14;11.57;;;9.00;;
65567;SDS011;52211;50.154;8.682;2023-03-12T09:46:47;8.33;;;7.53;;
65567;SDS011;52211;50.154;8.682;2023-03-12T09:52:18;9.27;;;7.60;;
65567;SDS011;52211;50.154;8.682;2023-03-12T09:55:01;9.97;;;8.13;;
65567;SDS011;52211;50.154;8.682;2023-03-12T09:57:39;10.93;;;8.00;;
65567;SDS011;52211;50.154;8.682;2023-03-12T10:00:13;11.63;;;8.50;;
65567;SDS011;52211;50.154;8.682;2023-03-12T10:11:22;9.87;;;8.63;;
65567;SDS011;52211;50.154;8.682;2023-03-12T10:26:28;13.27;;;9.90;;
65567;SDS011;52211;50.154;8.682;2023-03-12T10:29:07;13.43;;;10.03;;
65567;SDS011;52211;50.154;8.682;2023-03-12T10:31:47;15.60;;;9.63;;
65567;SDS011;52211;50.154;8.682;2023-03-12T10:34:57;12.33;;;9.70;;
65567;SDS011;52211;50.154;8.682;2023-03-12T10:37:43;13.17;;;10.43;;
65567;SDS011;52211;50.154;8.682;2023-03-12T10:40:26;14.43;;;10.10;;
65567;SDS011;52211;50.154;8.682;2023-03-12T10:43:02;12.77;;;10.50;;
65567;SDS011;52211;50.154;8.682;2023-03-12T10:48:08;11.73;;;10.23;;
65567;SDS011;52211;50.154;8.682;2023-03-12T10:50:42;14.03;;;9.53;;
65567;SDS011;52211;50.154;8.682;2023-03-12T10:53:28;15.17;;;11.60;;
65567;SDS011;52211;50.154;8.682;2023-03-12T10:56:07;18.50;;;12.13;;
65567;SDS011;52211;50.154;8.682;2023-03-12T11:03:42;14.60;;;11.93;;
65567;SDS011;52211;50.154;8.682;2023-03-12T11:06:32;16.43;;;11.00;;
65567;SDS011;52211;50.154;8.682;2023-03-12T11:09:05;16.83;;;12.63;;
65567;SDS011;52211;50.154;8.682;2023-03-12T11:11:43;14.80;;;10.87;;
65567;SDS011;52211;50.154;8.682;2023-03-12T11:16:55;15.50;;;11.57;;
65567;SDS011;52211;50.154;8.682;2023-03-12T11:19:54;14.47;;;11.03;;
65567;SDS011;52211;50.154;8.682;2023-03-12T11:22:31;14.00;;;11.03;;
65567;SDS011;52211;50.154;8.682;2023-03-12T11:25:04;14.43;;;11.70;;
65567;SDS011;52211;50.154;8.682;2023-03-12T11:27:44;15.80;;;11.97;;
65567;SDS011;52211;50.154;8.682;2023-03-12T11:30:17;15.17;;;11.93;;
65567;SDS011;52211;50.154;8.682;2023-03-12T11:32:54;15.03;;;11.53;;
65567;SDS011;52211;50.154;8.682;2023-03-12T11:35:35;14.73;;;11.50;;
65567;SDS011;52211;50.154;8.682;2023-03-12T11:38:12;14.03;;;10.60;;
65567;SDS011;52211;50.154;8.682;2023-03-12T11:46:43;15.03;;;11.77;;
65567;SDS011;52211;50.154;8.682;2023-03-12T11:49:40;12.60;;;9.77;;
65567;SDS011;52211;50.154;8.682;2023-03-12T11:52:58;10.43;;;9.33;;
65567;SDS011;52211;50.154;8.682;2023-03-12T12:10:10;13.40;;;8.50;;
65567;SDS011;52211;50.154;8.682;2023-03-12T12:13:14;11.70;;;9.27;;
65567;SDS011;52211;50.154;8.682;2023-03-12T12:16:00;9.87;;;8.27;;
65567;SDS011;52211;50.154;8.682;2023-03-12T12:19:05;9.23;;;8.33;;
65567;SDS011;52211;50.154;8.682;2023-03-12T12:27:35;12.10;;;9.50;;
65567;SDS011;52211;50.154;8.682;2023-03-12T12:35:41;12.37;;;10.03;;
65567;SDS011;52211;50.154;8.682;2023-03-12T12:41:16;12.10;;;9.73;;
65567;SDS011;52211;50.154;8.682;2023-03-12T12:43:53;13.73;;;11.03;;
65567;SDS011;52211;50.154;8.682;2023-03-12T12:46:35;10.37;;;9.33;;
65567;SDS011;52211;50.154;8.682;2023-03-12T12:49:12;13.47;;;10.20;;
65567;SDS011;52211;50.154;8.682;2023-03-12T12:52:11;10.63;;;9.60;;
65567;SDS011;52211;50.154;8.682;2023-03-12T13:03:18;11.27;;;8.17;;
65567;SDS011;52211;50.154;8.682;2023-03-12T13:05:54;12.90;;;9.97;;
65567;SDS011;52211;50.154;8.682;2023-03-12T13:16:32;11.13;;;10.03;;
65567;SDS011;52211;50.154;8.682;2023-03-12T13:33:05;10.10;;;9.20;;
65567;SDS011;52211;50.154;8.682;2023-03-12T13:35:40;10.43;;;8.70;;
65567;SDS011;52211;50.154;8.682;2023-03-12T13:38:17;11.10;;;8.60;;
65567;SDS011;52211;50.154;8.682;2023-03-12T13:41:03;10.13;;;8.97;;
65567;SDS011;52211;50.154;8.682;2023-03-12T13:46:20;12.73;;;8.03;;
65567;SDS011;52211;50.154;8.682;2023-03-12T13:49:02;11.03;;;9.27;;
65567;SDS011;52211;50.154;8.682;2023-03-12T13:52:02;9.70;;;8.63;;
65567;SDS011;52211;50.154;8.682;2023-03-12T13:54:56;10.67;;;9.20;;
65567;SDS011;52211;50.154;8.682;2023-03-12T13:57:44;12.10;;;9.07;;
65567;SDS011;52211;50.154;8.682;2023-03-12T14:00:51;9.50;;;8.60;;
65567;SDS011;52211;50.154;8.682;2023-03-12T14:03:34;13.47;;;9.93;;
65567;SDS011;52211;50.154;8.682;2023-03-12T14:06:13;9.80;;;8.80;;
65567;SDS011;52211;50.154;8.682;2023-03-12T14:17:29;11.60;;;9.50;;
65567;SDS011;52211;50.154;8.682;2023-03-12T14:22:48;10.00;;;8.80;;
65567;SDS011;52211;50.154;8.682;2023-03-12T14:25:38;9.93;;;9.00;;
65567;SDS011;52211;50.154;8.682;2023-03-12T14:28:14;10.37;;;9.17;;
65567;SDS011;52211;50.154;8.682;2023-03-12T14:30:53;11.77;;;10.67;;
65567;SDS011;52211;50.154;8.682;2023-03-12T14:33:21;11.50;;;9.43;;
65567;SDS011;52211;50.154;8.682;2023-03-12T14:35:57;13.63;;;10.37;;
65567;SDS011;52211;50.154;8.682;2023-03-12T14:38:43;10.53;;;9.50;;
65567;SDS011;52211;50.154;8.682;2023-03-12T14:41:15;10.67;;;9.67;;
65567;SDS011;52211;50.154;8.682;2023-03-12T14:43:56;10.93;;;9.73;;
65567;SDS011;52211;50.154;8.682;2023-03-12T14:46:45;10.67;;;9.40;;
65567;SDS011;52211;50.154;8.682;2023-03-12T14:49:25;10.57;;;9.47;;
65567;SDS011;52211;50.154;8.682;2023-03-12T14:51:54;13.23;;;9.80;;
65567;SDS011;52211;50.154;8.682;2023-03-12T14:54:26;10.50;;;9.30;;
65567;SDS011;52211;50.154;8.682;2023-03-12T14:56:56;10.97;;;9.97;;
65567;SDS011;52211;50.154;8.682;2023-03-12T14:59:34;10.77;;;9.67;;
65567;SDS011;52211;50.154;8.682;2023-03-12T15:02:15;12.33;;;9.70;;
65567;SDS011;52211;50.154;8.682;2023-03-12T15:04:48;10.90;;;9.77;;
65567;SDS011;52211;50.154;8.682;2023-03-12T15:07:21;12.30;;;11.03;;
65567;SDS011;52211;50.154;8.682;2023-03-12T15:10:16;11.03;;;9.77;;
65567;SDS011;52211;50.154;8.682;2023-03-12T15:12:48;10.13;;;9.13;;
65567;SDS011;52211;50.154;8.682;2023-03-12T15:18:13;11.33;;;10.17;;
65567;SDS011;52211;50.154;8.682;2023-03-12T15:20:47;11.83;;;10.43;;
65567;SDS011;52211;50.154;8.682;2023-03-12T15:23:22;12.07;;;10.87;;
65567;SDS011;52211;50.154;8.682;2023-03-12T15:31:52;12.47;;;11.13;;
65567;SDS011;52211;50.154;8.682;2023-03-12T15:34:32;12.87;;;10.77;;
65567;SDS011;52211;50.154;8.682;2023-03-12T15:39:59;12.77;;;9.70;;
65567;SDS011;52211;50.154;8.682;2023-03-12T15:42:48;14.60;;;10.87;;
65567;SDS011;52211;50.154;8.682;2023-03-12T15:45:20;12.40;;;10.30;;
65567;SDS011;52211;50.154;8.682;2023-03-12T15:48:02;12.60;;;10.53;;
65567;SDS011;52211;50.154;8.682;2023-03-12T15:50:49;11.67;;;10.07;;
65567;SDS011;52211;50.154;8.682;2023-03-12T15:55:53;11.07;;;10.07;;
65567;SDS011;52211;50.154;8.682;2023-03-12T15:58:57;11.13;;;9.97;;
65567;SDS011;52211;50.154;8.682;2023-03-12T16:01:53;12.17;;;10.67;;
65567;SDS011;52211;50.154;8.682;2023-03-12T16:04:22;13.90;;;10.73;;
65567;SDS011;52211;50.154;8.682;2023-03-12T16:06:49;13.70;;;10.83;;
65567;SDS011;52211;50.154;8.682;2023-03-12T16:09:19;11.67;;;10.10;;
65567;SDS011;52211;50.154;8.682;2023-03-12T16:11:52;11.43;;;10.13;;
65567;SDS011;52211;50.154;8.682;2023-03-12T16:14:26;11.40;;;10.30;;
65567;SDS011;52211;50.154;8.682;2023-03-12T16:17:00;12.53;;;11.13;;
65567;SDS011;52211;50.154;8.682;2023-03-12T16:19:29;11.27;;;10.07;;
65567;SDS011;52211;50.154;8.682;2023-03-12T16:21:59;10.10;;;9.20;;
65567;SDS011;52211;50.154;8.682;2023-03-12T16:24:26;12.50;;;10.17;;
65567;SDS011;52211;50.154;8.682;2023-03-12T16:26:56;10.10;;;9.20;;
65567;SDS011;52211;50.154;8.682;2023-03-12T16:29:33;10.57;;;9.57;;
65567;SDS011;52211;50.154;8.682;2023-03-12T16:32:08;11.10;;;10.00;;
65567;SDS011;52211;50.154;8.682;2023-03-12T16:34:39;12.13;;;10.67;;
65567;SDS011;52211;50.154;8.682;2023-03-12T16:37:12;11.43;;;10.13;;
65567;SDS011;52211;50.154;8.682;2023-03-12T16:39:40;12.90;;;9.73;;
65567;SDS011;52211;50.154;8.682;2023-03-12T16:42:11;11.87;;;10.13;;
65567;SDS011;52211;50.154;8.682;2023-03-12T16:44:42;10.63;;;9.30;;
65567;SDS011;52211;50.154;8.682;2023-03-12T16:47:13;12.90;;;10.27;;
65567;SDS011;52211;50.154;8.682;2023-03-12T16:49:41;10.27;;;9.27;;
65567;SDS011;52211;50.154;8.682;2023-03-12T16:52:13;10.87;;;9.47;;
65567;SDS011;52211;50.154;8.682;2023-03-12T16:54:47;11.93;;;10.63;;
65567;SDS011;52211;50.154;8.682;2023-03-12T16:57:19;12.07;;;9.47;;
65567;SDS011;52211;50.154;8.682;2023-03-12T16:59:54;12.47;;;10.70;;
65567;SDS011;52211;50.154;8.682;2023-03-12T17:02:21;15.97;;;11.60;;
65567;SDS011;52211;50.154;8.682;2023-03-12T17:04:48;12.00;;;10.00;;
65567;SDS011;52211;50.154;8.682;2023-03-12T17:07:18;14.60;;;10.60;;
65567;SDS011;52211;50.154;8.682;2023-03-12T17:09:52;11.47;;;9.13;;
65567;SDS011;52211;50.154;8.682;2023-03-12T17:12:25;12.17;;;9.63;;
65567;SDS011;52211;50.154;8.682;2023-03-12T17:15:12;10.33;;;9.27;;
65567;SDS011;52211;50.154;8.682;2023-03-12T17:17:52;10.83;;;9.77;;
65567;SDS011;52211;50.154;8.682;2023-03-12T17:20:24;12.47;;;9.67;;
65567;SDS011;52211;50.154;8.682;2023-03-12T17:22:51;12.13;;;9.33;;
65567;SDS011;52211;50.154;8.682;2023-03-12T17:27:56;11.70;;;9.00;;
65567;SDS011;52211;50.154;8.682;2023-03-12T17:30:26;13.47;;;8.63;;
65567;SDS011;52211;50.154;8.682;2023-03-12T17:33:06;12.23;;;8.47;;
65567;SDS011;52211;50.154;8.682;2023-03-12T17:35:36;10.17;;;7.83;;
65567;SDS011;52211;50.154;8.682;2023-03-12T17:38:03;11.40;;;7.73;;
65567;SDS011;52211;50.154;8.682;2023-03-12T17:40:33;8.67;;;7.77;;